sensor_id;sensor_type;location;lat;lon;timestamp;P1;durP1;ratioP1;P2;durP2;ratioP2
46022;SDS011;31756;47.936;16.224;2023-06-22T00:00:53;929.20;;;862.13;;
46022;SDS011;31756;47.936;16.224;2023-06-22T00:03:18;936.23;;;869.50;;
46022;SDS011;31756;47.936;16.224;2023-06-22T00:05:45;929.27;;;862.67;;
46022;SDS011;31756;47.936;16.224;2023-06-22T00:08:13;930.37;;;863.73;;
46022;SDS011;31756;47.936;16.224;2023-06-22T00:10:38;920.23;;;854.00;;
46022;SDS011;31756;47.936;16.224;2023-06-22T00:13:04;920.03;;;853.87;;
46022;SDS011;31756;47.936;16.224;2023-06-22T00:15:30;924.20;;;857.87;;
46022;SDS011;31756;47.936;16.224;2023-06-22T00:17:56;923.17;;;856.57;;
46022;SDS011;31756;47.936;16.224;2023-06-22T00:20:22;919.37;;;853.33;;
46022;SDS011;31756;47.936;16.224;2023-06-22T00:22:48;917.47;;;851.60;;
46022;SDS011;31756;47.936;16.224;2023-06-22T00:25:13;924.07;;;857.43;;
46022;SDS011;31756;47.936;16.224;2023-06-22T00:27:39;917.57;;;851.37;;
46022;SDS011;31756;47.936;16.224;2023-06-22T00:30:05;919.73;;;853.93;;
46022;SDS011;31756;47.936;16.224;2023-06-22T00:32:31;918.33;;;852.20;;
46022;SDS011;31756;47.936;16.224;2023-06-22T00:34:56;923.13;;;857.10;;
46022;SDS011;31756;47.936;16.224;2023-06-22T00:37:22;928.97;;;862.67;;
46022;SDS011;31756;47.936;16.224;2023-06-22T00:39:52;928.17;;;861.80;;
46022;SDS011;31756;47.936;16.224;2023-06-22T00:42:18;921.77;;;855.47;;
46022;SDS011;31756;47.936;16.224;2023-06-22T00:44:43;923.93;;;857.53;;
46022;SDS011;31756;47.936;16.224;2023-06-22T00:47:10;922.30;;;856.27;;
46022;SDS011;31756;47.936;16.224;2023-06-22T00:49:38;931.70;;;865.10;;
46022;SDS011;31756;47.936;16.224;2023-06-22T00:52:04;922.70;;;856.23;;
46022;SDS011;31756;47.936;16.224;2023-06-22T00:54:35;922.30;;;856.20;;
46022;SDS011;31756;47.936;16.224;2023-06-22T00:57:01;922.57;;;856.00;;
46022;SDS011;31756;47.936;16.224;2023-06-22T00:59:27;936.80;;;868.97;;
46022;SDS011;31756;47.936;16.224;2023-06-22T01:01:52;929.60;;;862.30;;
46022;SDS011;31756;47.936;16.224;2023-06-22T01:04:18;918.23;;;851.93;;
46022;SDS011;31756;47.936;16.224;2023-06-22T01:07:08;915.63;;;848.97;;
46022;SDS011;31756;47.936;16.224;2023-06-22T01:09:31;918.27;;;852.23;;
46022;SDS011;31756;47.936;16.224;2023-06-22T01:12:00;914.50;;;848.53;;
46022;SDS011;31756;47.936;16.224;2023-06-22T01:14:28;911.10;;;845.30;;
46022;SDS011;31756;47.936;16.224;2023-06-22T01:16:57;913.17;;;847.50;;
46022;SDS011;31756;47.936;16.224;2023-06-22T01:19:39;911.67;;;845.97;;
46022;SDS011;31756;47.936;16.224;2023-06-22T01:22:06;909.80;;;843.97;;
46022;SDS011;31756;47.936;16.224;2023-06-22T01:29:51;919.77;;;853.47;;
46022;SDS011;31756;47.936;16.224;2023-06-22T01:32:17;919.50;;;852.83;;
46022;SDS011;31756;47.936;16.224;2023-06-22T01:34:43;916.37;;;850.13;;
46022;SDS011;31756;47.936;16.224;2023-06-22T01:37:09;914.93;;;848.97;;
46022;SDS011;31756;47.936;16.224;2023-06-22T01:39:35;924.07;;;857.40;;
46022;SDS011;31756;47.936;16.224;2023-06-22T01:42:00;908.70;;;843.20;;
46022;SDS011;31756;47.936;16.224;2023-06-22T01:44:27;907.13;;;841.90;;
46022;SDS011;31756;47.936;16.224;2023-06-22T01:46:53;907.87;;;842.10;;
46022;SDS011;31756;47.936;16.224;2023-06-22T01:49:19;899.90;;;834.40;;
46022;SDS011;31756;47.936;16.224;2023-06-22T01:51:45;908.87;;;842.83;;
46022;SDS011;31756;47.936;16.224;2023-06-22T01:54:11;900.63;;;835.20;;
46022;SDS011;31756;47.936;16.224;2023-06-22T01:56:38;916.43;;;850.37;;
46022;SDS011;31756;47.936;16.224;2023-06-22T02:01:31;903.90;;;838.47;;
46022;SDS011;31756;47.936;16.224;2023-06-22T02:04:03;915.73;;;849.93;;
46022;SDS011;31756;47.936;16.224;2023-06-22T02:06:31;901.47;;;835.77;;
46022;SDS011;31756;47.936;16.224;2023-06-22T02:09:01;898.47;;;833.07;;
46022;SDS011;31756;47.936;16.224;2023-06-22T02:11:27;902.13;;;836.60;;
46022;SDS011;31756;47.936;16.224;2023-06-22T02:13:54;904.00;;;838.67;;
46022;SDS011;31756;47.936;16.224;2023-06-22T02:16:21;906.23;;;840.50;;
46022;SDS011;31756;47.936;16.224;2023-06-22T02:18:47;900.53;;;835.23;;
46022;SDS011;31756;47.936;16.224;2023-06-22T02:21:13;901.73;;;836.30;;
46022;SDS011;31756;47.936;16.224;2023-06-22T02:23:38;899.67;;;834.33;;
46022;SDS011;31756;47.936;16.224;2023-06-22T02:26:04;903.43;;;837.93;;
46022;SDS011;31756;47.936;16.224;2023-06-22T02:28:30;896.03;;;831.00;;
46022;SDS011;31756;47.936;16.224;2023-06-22T02:30:56;889.67;;;824.87;;
46022;SDS011;31756;47.936;16.224;2023-06-22T02:33:21;908.67;;;843.13;;
46022;SDS011;31756;47.936;16.224;2023-06-22T02:35:47;900.93;;;835.27;;
46022;SDS011;31756;47.936;16.224;2023-06-22T02:38:14;900.07;;;834.67;;
46022;SDS011;31756;47.936;16.224;2023-06-22T02:40:40;893.80;;;828.53;;
46022;SDS011;31756;47.936;16.224;2023-06-22T02:43:06;902.30;;;836.53;;
46022;SDS011;31756;47.936;16.224;2023-06-22T02:45:31;891.40;;;826.37;;
46022;SDS011;31756;47.936;16.224;2023-06-22T02:47:57;900.20;;;835.00;;
46022;SDS011;31756;47.936;16.224;2023-06-22T02:50:23;896.53;;;831.23;;
46022;SDS011;31756;47.936;16.224;2023-06-22T02:52:49;898.77;;;833.57;;
46022;SDS011;31756;47.936;16.224;2023-06-22T02:55:14;897.37;;;832.10;;
46022;SDS011;31756;47.936;16.224;2023-06-22T02:57:43;894.33;;;829.20;;
46022;SDS011;31756;47.936;16.224;2023-06-22T03:00:09;900.43;;;835.30;;
46022;SDS011;31756;47.936;16.224;2023-06-22T03:02:42;898.33;;;833.40;;
46022;SDS011;31756;47.936;16.224;2023-06-22T03:05:08;900.27;;;835.27;;
46022;SDS011;31756;47.936;16.224;2023-06-22T03:07:42;900.23;;;834.97;;
46022;SDS011;31756;47.936;16.224;2023-06-22T03:10:09;896.73;;;831.37;;
46022;SDS011;31756;47.936;16.224;2023-06-22T03:12:36;894.77;;;829.83;;
46022;SDS011;31756;47.936;16.224;2023-06-22T03:15:01;894.93;;;830.23;;
46022;SDS011;31756;47.936;16.224;2023-06-22T03:17:27;893.40;;;828.50;;
46022;SDS011;31756;47.936;16.224;2023-06-22T03:19:52;888.33;;;823.57;;
46022;SDS011;31756;47.936;16.224;2023-06-22T03:22:18;883.43;;;818.60;;
46022;SDS011;31756;47.936;16.224;2023-06-22T03:24:44;888.13;;;823.50;;
46022;SDS011;31756;47.936;16.224;2023-06-22T03:27:09;889.80;;;825.17;;
46022;SDS011;31756;47.936;16.224;2023-06-22T03:29:35;886.67;;;822.03;;
46022;SDS011;31756;47.936;16.224;2023-06-22T03:32:00;885.23;;;820.67;;
46022;SDS011;31756;47.936;16.224;2023-06-22T03:34:26;894.47;;;829.30;;
46022;SDS011;31756;47.936;16.224;2023-06-22T03:36:52;885.63;;;820.73;;
46022;SDS011;31756;47.936;16.224;2023-06-22T03:39:17;897.23;;;832.23;;
46022;SDS011;31756;47.936;16.224;2023-06-22T03:41:43;891.93;;;827.13;;
46022;SDS011;31756;47.936;16.224;2023-06-22T03:44:08;884.83;;;820.20;;
46022;SDS011;31756;47.936;16.224;2023-06-22T03:46:37;896.63;;;831.73;;
46022;SDS011;31756;47.936;16.224;2023-06-22T03:49:03;899.70;;;834.40;;
46022;SDS011;31756;47.936;16.224;2023-06-22T03:51:30;889.60;;;824.93;;
46022;SDS011;31756;47.936;16.224;2023-06-22T03:53:56;895.63;;;830.77;;
46022;SDS011;31756;47.936;16.224;2023-06-22T03:56:21;904.93;;;839.53;;
46022;SDS011;31756;47.936;16.224;2023-06-22T03:58:46;911.07;;;845.50;;
46022;SDS011;31756;47.936;16.224;2023-06-22T04:01:12;908.73;;;843.13;;
46022;SDS011;31756;47.936;16.224;2023-06-22T04:03:38;911.10;;;845.40;;
46022;SDS011;31756;47.936;16.224;2023-06-22T04:06:03;908.90;;;843.73;;
46022;SDS011;31756;47.936;16.224;2023-06-22T04:08:29;910.00;;;844.53;;
46022;SDS011;31756;47.936;16.224;2023-06-22T04:10:54;916.93;;;850.83;;
46022;SDS011;31756;47.936;16.224;2023-06-22T04:13:20;922.50;;;856.57;;
46022;SDS011;31756;47.936;16.224;2023-06-22T04:15:45;924.03;;;858.43;;
46022;SDS011;31756;47.936;16.224;2023-06-22T04:18:11;933.63;;;867.33;;
46022;SDS011;31756;47.936;16.224;2023-06-22T04:20:37;927.90;;;862.10;;
46022;SDS011;31756;47.936;16.224;2023-06-22T04:23:02;933.63;;;867.77;;
46022;SDS011;31756;47.936;16.224;2023-06-22T04:25:27;937.60;;;870.60;;
46022;SDS011;31756;47.936;16.224;2023-06-22T04:27:53;934.83;;;868.53;;
46022;SDS011;31756;47.936;16.224;2023-06-22T04:30:18;944.03;;;876.90;;
46022;SDS011;31756;47.936;16.224;2023-06-22T04:32:44;940.43;;;873.77;;
46022;SDS011;31756;47.936;16.224;2023-06-22T04:35:09;935.17;;;869.10;;
46022;SDS011;31756;47.936;16.224;2023-06-22T04:37:35;948.90;;;881.70;;
46022;SDS011;31756;47.936;16.224;2023-06-22T04:40:01;949.30;;;882.47;;
46022;SDS011;31756;47.936;16.224;2023-06-22T04:42:26;947.93;;;881.33;;
46022;SDS011;31756;47.936;16.224;2023-06-22T04:44:52;951.77;;;884.93;;
46022;SDS011;31756;47.936;16.224;2023-06-22T04:47:18;955.20;;;888.17;;
46022;SDS011;31756;47.936;16.224;2023-06-22T04:49:45;954.77;;;887.67;;
46022;SDS011;31756;47.936;16.224;2023-06-22T04:52:22;962.13;;;894.80;;
46022;SDS011;31756;47.936;16.224;2023-06-22T04:54:49;966.13;;;898.83;;
46022;SDS011;31756;47.936;16.224;2023-06-22T04:57:20;959.57;;;892.40;;
46022;SDS011;31756;47.936;16.224;2023-06-22T04:59:46;975.17;;;907.13;;
46022;SDS011;31756;47.936;16.224;2023-06-22T05:02:11;974.07;;;906.07;;
46022;SDS011;31756;47.936;16.224;2023-06-22T05:04:37;972.23;;;904.20;;
46022;SDS011;31756;47.936;16.224;2023-06-22T05:07:05;973.53;;;905.87;;
46022;SDS011;31756;47.936;16.224;2023-06-22T05:09:31;976.17;;;908.20;;
46022;SDS011;31756;47.936;16.224;2023-06-22T05:11:59;990.73;;;921.87;;
46022;SDS011;31756;47.936;16.224;2023-06-22T05:14:27;979.13;;;911.17;;
46022;SDS011;31756;47.936;16.224;2023-06-22T05:16:52;987.07;;;918.63;;
46022;SDS011;31756;47.936;16.224;2023-06-22T05:19:18;987.67;;;919.50;;
46022;SDS011;31756;47.936;16.224;2023-06-22T05:21:44;996.37;;;927.57;;
46022;SDS011;31756;47.936;16.224;2023-06-22T05:24:11;1001.23;;;932.23;;
46022;SDS011;31756;47.936;16.224;2023-06-22T05:26:36;1008.03;;;938.57;;
46022;SDS011;31756;47.936;16.224;2023-06-22T05:29:02;1000.20;;;930.97;;
46022;SDS011;31756;47.936;16.224;2023-06-22T05:31:28;1008.00;;;938.93;;
46022;SDS011;31756;47.936;16.224;2023-06-22T05:33:54;1005.30;;;936.30;;
46022;SDS011;31756;47.936;16.224;2023-06-22T05:36:19;1014.77;;;945.37;;
46022;SDS011;31756;47.936;16.224;2023-06-22T05:38:46;1010.83;;;941.60;;
46022;SDS011;31756;47.936;16.224;2023-06-22T05:41:12;1015.70;;;946.37;;
46022;SDS011;31756;47.936;16.224;2023-06-22T05:43:37;1019.97;;;950.27;;
46022;SDS011;31756;47.936;16.224;2023-06-22T05:46:03;1026.80;;;956.63;;
46022;SDS011;31756;47.936;16.224;2023-06-22T05:48:30;1024.47;;;954.60;;
46022;SDS011;31756;47.936;16.224;2023-06-22T05:50:58;1029.10;;;958.83;;
46022;SDS011;31756;47.936;16.224;2023-06-22T05:53:24;1038.53;;;967.80;;
46022;SDS011;31756;47.936;16.224;2023-06-22T05:55:49;1035.73;;;965.33;;
46022;SDS011;31756;47.936;16.224;2023-06-22T05:58:15;1039.37;;;968.97;;
46022;SDS011;31756;47.936;16.224;2023-06-22T06:00:40;1041.23;;;970.27;;
46022;SDS011;31756;47.936;16.224;2023-06-22T06:03:06;1040.30;;;969.90;;
46022;SDS011;31756;47.936;16.224;2023-06-22T06:05:32;1043.03;;;972.23;;
46022;SDS011;31756;47.936;16.224;2023-06-22T06:08:02;1047.20;;;976.57;;
46022;SDS011;31756;47.936;16.224;2023-06-22T06:10:28;1046.00;;;975.27;;
46022;SDS011;31756;47.936;16.224;2023-06-22T06:12:55;1048.63;;;977.20;;
46022;SDS011;31756;47.936;16.224;2023-06-22T06:15:20;1045.47;;;974.63;;
46022;SDS011;31756;47.936;16.224;2023-06-22T06:17:52;1048.87;;;977.57;;
46022;SDS011;31756;47.936;16.224;2023-06-22T06:20:19;1049.50;;;978.07;;
46022;SDS011;31756;47.936;16.224;2023-06-22T06:22:45;1052.00;;;980.57;;
46022;SDS011;31756;47.936;16.224;2023-06-22T06:25:10;1051.67;;;980.53;;
46022;SDS011;31756;47.936;16.224;2023-06-22T06:27:41;1049.67;;;978.50;;
46022;SDS011;31756;47.936;16.224;2023-06-22T06:30:06;1059.27;;;987.63;;
46022;SDS011;31756;47.936;16.224;2023-06-22T06:32:32;1058.93;;;987.17;;
46022;SDS011;31756;47.936;16.224;2023-06-22T06:34:58;1063.50;;;991.60;;
46022;SDS011;31756;47.936;16.224;2023-06-22T06:37:23;1065.33;;;993.60;;
46022;SDS011;31756;47.936;16.224;2023-06-22T06:39:49;1061.77;;;989.93;;
46022;SDS011;31756;47.936;16.224;2023-06-22T06:42:14;1071.33;;;998.03;;
46022;SDS011;31756;47.936;16.224;2023-06-22T06:44:39;1068.73;;;996.33;;
46022;SDS011;31756;47.936;16.224;2023-06-22T06:47:05;1081.57;;;999.90;;
46022;SDS011;31756;47.936;16.224;2023-06-22T06:49:30;1077.33;;;999.90;;
46022;SDS011;31756;47.936;16.224;2023-06-22T06:51:56;1077.13;;;999.90;;
46022;SDS011;31756;47.936;16.224;2023-06-22T06:54:21;1084.87;;;999.90;;
46022;SDS011;31756;47.936;16.224;2023-06-22T06:56:49;1086.57;;;999.90;;
46022;SDS011;31756;47.936;16.224;2023-06-22T06:59:15;1085.33;;;999.90;;
46022;SDS011;31756;47.936;16.224;2023-06-22T07:01:41;1097.40;;;999.90;;
46022;SDS011;31756;47.936;16.224;2023-06-22T07:04:06;1088.47;;;999.90;;
46022;SDS011;31756;47.936;16.224;2023-06-22T07:06:32;1095.53;;;999.90;;
46022;SDS011;31756;47.936;16.224;2023-06-22T07:08:59;1090.80;;;999.90;;
46022;SDS011;31756;47.936;16.224;2023-06-22T07:11:24;1096.83;;;999.90;;
46022;SDS011;31756;47.936;16.224;2023-06-22T07:13:50;1095.23;;;999.90;;
46022;SDS011;31756;47.936;16.224;2023-06-22T07:16:15;1102.20;;;999.90;;
46022;SDS011;31756;47.936;16.224;2023-06-22T07:18:40;1100.00;;;999.90;;
46022;SDS011;31756;47.936;16.224;2023-06-22T07:21:06;1104.50;;;999.90;;
46022;SDS011;31756;47.936;16.224;2023-06-22T07:23:32;1102.27;;;999.90;;
46022;SDS011;31756;47.936;16.224;2023-06-22T07:25:58;1100.37;;;999.90;;
46022;SDS011;31756;47.936;16.224;2023-06-22T07:28:27;1110.63;;;999.90;;
46022;SDS011;31756;47.936;16.224;2023-06-22T07:30:52;1114.97;;;999.90;;
46022;SDS011;31756;47.936;16.224;2023-06-22T07:33:18;1114.57;;;999.90;;
46022;SDS011;31756;47.936;16.224;2023-06-22T07:35:44;1113.07;;;999.90;;
46022;SDS011;31756;47.936;16.224;2023-06-22T07:38:10;1112.07;;;999.90;;
46022;SDS011;31756;47.936;16.224;2023-06-22T07:40:35;1122.63;;;999.90;;
46022;SDS011;31756;47.936;16.224;2023-06-22T07:43:01;1126.53;;;999.90;;
46022;SDS011;31756;47.936;16.224;2023-06-22T07:45:26;1122.67;;;999.90;;
46022;SDS011;31756;47.936;16.224;2023-06-22T07:47:52;1124.40;;;999.90;;
46022;SDS011;31756;47.936;16.224;2023-06-22T07:50:19;1128.17;;;999.90;;
46022;SDS011;31756;47.936;16.224;2023-06-22T07:52:44;1136.63;;;999.90;;
46022;SDS011;31756;47.936;16.224;2023-06-22T07:55:10;1136.40;;;999.90;;
46022;SDS011;31756;47.936;16.224;2023-06-22T07:57:35;1132.47;;;999.90;;
46022;SDS011;31756;47.936;16.224;2023-06-22T08:00:05;1136.83;;;999.90;;
46022;SDS011;31756;47.936;16.224;2023-06-22T08:02:42;1141.63;;;999.90;;
46022;SDS011;31756;47.936;16.224;2023-06-22T08:05:08;1143.80;;;999.90;;
46022;SDS011;31756;47.936;16.224;2023-06-22T08:07:34;1145.93;;;999.90;;
46022;SDS011;31756;47.936;16.224;2023-06-22T08:10:02;1140.60;;;999.90;;
46022;SDS011;31756;47.936;16.224;2023-06-22T08:12:28;1143.77;;;999.90;;
46022;SDS011;31756;47.936;16.224;2023-06-22T08:14:53;1138.70;;;999.90;;
46022;SDS011;31756;47.936;16.224;2023-06-22T08:17:18;1151.17;;;999.90;;
46022;SDS011;31756;47.936;16.224;2023-06-22T08:19:44;1142.77;;;999.90;;
46022;SDS011;31756;47.936;16.224;2023-06-22T08:22:09;1145.43;;;999.90;;
46022;SDS011;31756;47.936;16.224;2023-06-22T08:24:35;1147.30;;;999.90;;
46022;SDS011;31756;47.936;16.224;2023-06-22T08:27:01;1147.60;;;999.90;;
46022;SDS011;31756;47.936;16.224;2023-06-22T08:29:26;1147.47;;;999.90;;
46022;SDS011;31756;47.936;16.224;2023-06-22T08:31:52;1149.37;;;999.90;;
46022;SDS011;31756;47.936;16.224;2023-06-22T08:34:18;1147.47;;;999.90;;
46022;SDS011;31756;47.936;16.224;2023-06-22T08:36:52;1141.85;;;999.90;;
46022;SDS011;31756;47.936;16.224;2023-06-22T08:39:18;1154.50;;;999.90;;
46022;SDS011;31756;47.936;16.224;2023-06-22T08:41:45;1161.33;;;999.90;;
46022;SDS011;31756;47.936;16.224;2023-06-22T08:44:10;1160.87;;;999.90;;
46022;SDS011;31756;47.936;16.224;2023-06-22T08:46:35;1155.17;;;999.90;;
46022;SDS011;31756;47.936;16.224;2023-06-22T08:49:01;1160.37;;;999.90;;
46022;SDS011;31756;47.936;16.224;2023-06-22T08:51:27;1164.90;;;999.90;;
46022;SDS011;31756;47.936;16.224;2023-06-22T08:53:54;1159.27;;;999.90;;
46022;SDS011;31756;47.936;16.224;2023-06-22T08:56:20;1166.83;;;999.90;;
46022;SDS011;31756;47.936;16.224;2023-06-22T08:58:45;1161.47;;;999.90;;
46022;SDS011;31756;47.936;16.224;2023-06-22T09:01:11;1172.23;;;999.90;;
46022;SDS011;31756;47.936;16.224;2023-06-22T09:03:36;1168.50;;;999.90;;
46022;SDS011;31756;47.936;16.224;2023-06-22T09:06:02;1170.03;;;999.90;;
46022;SDS011;31756;47.936;16.224;2023-06-22T09:08:28;1167.25;;;999.90;;
46022;SDS011;31756;47.936;16.224;2023-06-22T09:10:53;1166.78;;;999.90;;
46022;SDS011;31756;47.936;16.224;2023-06-22T09:13:19;1167.40;;;999.90;;
46022;SDS011;31756;47.936;16.224;2023-06-22T09:15:44;1175.30;;;999.90;;
46022;SDS011;31756;47.936;16.224;2023-06-22T09:18:10;1179.72;;;999.90;;
46022;SDS011;31756;47.936;16.224;2023-06-22T09:20:36;1175.35;;;999.90;;
46022;SDS011;31756;47.936;16.224;2023-06-22T09:23:01;1174.40;;;999.90;;
46022;SDS011;31756;47.936;16.224;2023-06-22T09:25:27;1177.82;;;999.90;;
46022;SDS011;31756;47.936;16.224;2023-06-22T09:27:52;1176.55;;;999.90;;
46022;SDS011;31756;47.936;16.224;2023-06-22T09:30:18;1181.68;;;999.90;;
46022;SDS011;31756;47.936;16.224;2023-06-22T09:32:44;1185.38;;;999.90;;
46022;SDS011;31756;47.936;16.224;2023-06-22T09:35:09;1181.05;;;999.90;;
46022;SDS011;31756;47.936;16.224;2023-06-22T09:37:35;1186.97;;;999.90;;
46022;SDS011;31756;47.936;16.224;2023-06-22T09:40:01;1186.18;;;999.90;;
46022;SDS011;31756;47.936;16.224;2023-06-22T09:42:26;1186.25;;;999.90;;
46022;SDS011;31756;47.936;16.224;2023-06-22T09:44:52;1188.70;;;999.90;;
46022;SDS011;31756;47.936;16.224;2023-06-22T09:47:17;1189.47;;;999.90;;
46022;SDS011;31756;47.936;16.224;2023-06-22T09:49:43;1198.75;;;999.90;;
46022;SDS011;31756;47.936;16.224;2023-06-22T09:52:08;1192.00;;;999.90;;
46022;SDS011;31756;47.936;16.224;2023-06-22T09:54:33;1198.68;;;999.90;;
46022;SDS011;31756;47.936;16.224;2023-06-22T09:56:59;1193.35;;;999.90;;
46022;SDS011;31756;47.936;16.224;2023-06-22T09:59:24;1192.85;;;999.90;;
46022;SDS011;31756;47.936;16.224;2023-06-22T10:01:50;1192.50;;;999.90;;
46022;SDS011;31756;47.936;16.224;2023-06-22T10:04:15;1198.95;;;999.90;;
46022;SDS011;31756;47.936;16.224;2023-06-22T10:06:41;1201.32;;;999.90;;
46022;SDS011;31756;47.936;16.224;2023-06-22T10:09:07;1197.97;;;999.90;;
46022;SDS011;31756;47.936;16.224;2023-06-22T10:11:33;1205.03;;;999.90;;
46022;SDS011;31756;47.936;16.224;2023-06-22T10:14:00;1208.20;;;999.90;;
46022;SDS011;31756;47.936;16.224;2023-06-22T10:16:30;1207.32;;;999.90;;
46022;SDS011;31756;47.936;16.224;2023-06-22T10:18:55;1214.05;;;999.90;;
46022;SDS011;31756;47.936;16.224;2023-06-22T10:21:20;1216.68;;;999.90;;
46022;SDS011;31756;47.936;16.224;2023-06-22T10:23:46;1210.40;;;999.90;;
46022;SDS011;31756;47.936;16.224;2023-06-22T10:26:11;1209.10;;;999.90;;
46022;SDS011;31756;47.936;16.224;2023-06-22T10:28:37;1216.90;;;999.90;;
46022;SDS011;31756;47.936;16.224;2023-06-22T10:31:02;1213.95;;;999.90;;
46022;SDS011;31756;47.936;16.224;2023-06-22T10:33:27;1208.78;;;999.90;;
46022;SDS011;31756;47.936;16.224;2023-06-22T10:35:53;1216.85;;;999.90;;
46022;SDS011;31756;47.936;16.224;2023-06-22T10:38:18;1221.47;;;999.90;;
46022;SDS011;31756;47.936;16.224;2023-06-22T10:40:46;1220.25;;;999.90;;
46022;SDS011;31756;47.936;16.224;2023-06-22T10:43:12;1220.93;;;999.90;;
46022;SDS011;31756;47.936;16.224;2023-06-22T10:45:37;1218.05;;;999.90;;
46022;SDS011;31756;47.936;16.224;2023-06-22T10:48:03;1213.65;;;999.90;;
46022;SDS011;31756;47.936;16.224;2023-06-22T10:50:28;1215.82;;;999.90;;
46022;SDS011;31756;47.936;16.224;2023-06-22T10:52:54;1223.03;;;999.90;;
46022;SDS011;31756;47.936;16.224;2023-06-22T10:55:19;1221.47;;;999.90;;
46022;SDS011;31756;47.936;16.224;2023-06-22T10:57:45;1226.95;;;999.90;;
46022;SDS011;31756;47.936;16.224;2023-06-22T11:00:13;1225.53;;;999.90;;
46022;SDS011;31756;47.936;16.224;2023-06-22T11:02:38;1223.93;;;999.90;;
46022;SDS011;31756;47.936;16.224;2023-06-22T11:05:04;1232.65;;;999.90;;
46022;SDS011;31756;47.936;16.224;2023-06-22T11:07:30;1223.88;;;999.90;;
46022;SDS011;31756;47.936;16.224;2023-06-22T11:09:55;1234.13;;;999.90;;
46022;SDS011;31756;47.936;16.224;2023-06-22T11:12:21;1229.63;;;999.90;;
46022;SDS011;31756;47.936;16.224;2023-06-22T11:14:46;1228.57;;;999.90;;
46022;SDS011;31756;47.936;16.224;2023-06-22T11:17:12;1228.03;;;999.90;;
46022;SDS011;31756;47.936;16.224;2023-06-22T11:19:37;1230.22;;;999.90;;
46022;SDS011;31756;47.936;16.224;2023-06-22T11:22:03;1231.32;;;999.90;;
46022;SDS011;31756;47.936;16.224;2023-06-22T11:24:28;1230.47;;;999.90;;
46022;SDS011;31756;47.936;16.224;2023-06-22T11:26:54;1236.15;;;999.90;;
46022;SDS011;31756;47.936;16.224;2023-06-22T11:29:19;1233.93;;;999.90;;
46022;SDS011;31756;47.936;16.224;2023-06-22T11:31:44;1236.43;;;999.90;;
46022;SDS011;31756;47.936;16.224;2023-06-22T11:34:10;1233.13;;;999.90;;
46022;SDS011;31756;47.936;16.224;2023-06-22T11:36:36;1239.32;;;999.90;;
46022;SDS011;31756;47.936;16.224;2023-06-22T11:39:02;1237.57;;;999.90;;
46022;SDS011;31756;47.936;16.224;2023-06-22T11:41:28;1239.95;;;999.90;;
46022;SDS011;31756;47.936;16.224;2023-06-22T11:43:53;1239.05;;;999.90;;
46022;SDS011;31756;47.936;16.224;2023-06-22T11:46:18;1237.15;;;999.90;;
46022;SDS011;31756;47.936;16.224;2023-06-22T11:48:44;1236.90;;;999.90;;
46022;SDS011;31756;47.936;16.224;2023-06-22T11:51:10;1232.22;;;999.90;;
46022;SDS011;31756;47.936;16.224;2023-06-22T11:53:36;1238.25;;;999.90;;
46022;SDS011;31756;47.936;16.224;2023-06-22T12:53:15;1271.07;;;999.90;;
46022;SDS011;31756;47.936;16.224;2023-06-22T12:55:40;1269.65;;;999.90;;
46022;SDS011;31756;47.936;16.224;2023-06-22T12:58:06;1269.40;;;999.90;;
46022;SDS011;31756;47.936;16.224;2023-06-22T13:00:31;1399.73;;;999.90;;
46022;SDS011;31756;47.936;16.224;2023-06-22T13:02:56;1311.53;;;999.90;;
46022;SDS011;31756;47.936;16.224;2023-06-22T13:05:22;1308.47;;;999.90;;
46022;SDS011;31756;47.936;16.224;2023-06-22T13:07:48;1295.53;;;999.90;;
46022;SDS011;31756;47.936;16.224;2023-06-22T13:10:15;1296.43;;;999.90;;
46022;SDS011;31756;47.936;16.224;2023-06-22T13:12:40;1295.75;;;999.90;;
46022;SDS011;31756;47.936;16.224;2023-06-22T13:15:06;1296.85;;;999.90;;
46022;SDS011;31756;47.936;16.224;2023-06-22T13:17:31;1292.32;;;999.90;;
46022;SDS011;31756;47.936;16.224;2023-06-22T13:19:57;1297.05;;;999.90;;
46022;SDS011;31756;47.936;16.224;2023-06-22T13:22:32;1294.82;;;999.90;;
46022;SDS011;31756;47.936;16.224;2023-06-22T13:24:58;1295.88;;;999.90;;
46022;SDS011;31756;47.936;16.224;2023-06-22T13:27:24;1297.07;;;999.90;;
46022;SDS011;31756;47.936;16.224;2023-06-22T13:29:49;1296.95;;;999.90;;
46022;SDS011;31756;47.936;16.224;2023-06-22T13:32:15;1290.88;;;999.90;;
46022;SDS011;31756;47.936;16.224;2023-06-22T13:34:40;1295.38;;;999.90;;
46022;SDS011;31756;47.936;16.224;2023-06-22T13:37:05;1294.72;;;999.90;;
46022;SDS011;31756;47.936;16.224;2023-06-22T13:39:31;1292.10;;;999.90;;
46022;SDS011;31756;47.936;16.224;2023-06-22T13:41:57;1296.97;;;999.90;;
46022;SDS011;31756;47.936;16.224;2023-06-22T13:44:22;1297.53;;;999.90;;
46022;SDS011;31756;47.936;16.224;2023-06-22T13:46:48;1295.88;;;999.90;;
46022;SDS011;31756;47.936;16.224;2023-06-22T13:49:14;1295.07;;;999.90;;
46022;SDS011;31756;47.936;16.224;2023-06-22T13:51:39;1298.43;;;999.90;;
46022;SDS011;31756;47.936;16.224;2023-06-22T13:54:04;1298.60;;;999.90;;
46022;SDS011;31756;47.936;16.224;2023-06-22T13:56:30;1301.13;;;999.90;;
46022;SDS011;31756;47.936;16.224;2023-06-22T13:58:55;1295.18;;;999.90;;
46022;SDS011;31756;47.936;16.224;2023-06-22T14:01:21;1297.47;;;999.90;;
46022;SDS011;31756;47.936;16.224;2023-06-22T14:03:48;1298.47;;;999.90;;
46022;SDS011;31756;47.936;16.224;2023-06-22T14:06:13;1301.45;;;999.90;;
46022;SDS011;31756;47.936;16.224;2023-06-22T14:08:39;1300.72;;;999.90;;
46022;SDS011;31756;47.936;16.224;2023-06-22T14:11:04;1300.80;;;999.90;;
46022;SDS011;31756;47.936;16.224;2023-06-22T14:13:30;1299.75;;;999.90;;
46022;SDS011;31756;47.936;16.224;2023-06-22T14:15:55;1297.18;;;999.90;;
46022;SDS011;31756;47.936;16.224;2023-06-22T14:18:20;1303.03;;;999.90;;
46022;SDS011;31756;47.936;16.224;2023-06-22T14:20:47;1297.00;;;999.90;;
46022;SDS011;31756;47.936;16.224;2023-06-22T14:23:13;1301.90;;;999.90;;
46022;SDS011;31756;47.936;16.224;2023-06-22T14:25:39;1306.00;;;999.90;;
46022;SDS011;31756;47.936;16.224;2023-06-22T14:28:04;1301.03;;;999.90;;
46022;SDS011;31756;47.936;16.224;2023-06-22T14:30:30;1302.30;;;999.90;;
46022;SDS011;31756;47.936;16.224;2023-06-22T14:32:55;1300.35;;;999.90;;
46022;SDS011;31756;47.936;16.224;2023-06-22T14:35:21;1306.60;;;999.90;;